McAdoo, Texas
Current Conditions -  °F | °C
As of 5:53 AM on Friday 28 Nov 2014 (Local Time) from KLBB Reporting Station
Scattered Clouds Scattered Clouds  
Wind Chill: 33°   Ceiling: Unl
Heat Index: 41°   Visibility: 10mi
Dew Point: 30°   Wind: 14mph
Humidity: 65%   Direction: 240°WSW
Pressure: 30.14"   Gusts: NA
Location:  33.73°N, 101.01°W
Report Text: KLBB 281153Z 24012KT 10SM FEW260 SCT300 05/M01 A3014 RMK AO2 SLP195 T00501011 10089 20050 56014
Loading
Personal Weather Stations






























Interactive Weather Map New forecast layout! Learn more

10-Day Weather Forecast

Advertisements
Track Severe Weather on mobile